sensor_id;sensor_type;location;lat;lon;timestamp;pressure;altitude;pressure_sealevel;temperature;humidity
62703;BME280;66022;50.448;18.122;2023-02-22T00:03:14;99215.76;;;6.43;82.82
62703;BME280;66022;50.448;18.122;2023-02-22T00:07:24;99215.05;;;6.39;85.65
62703;BME280;66022;50.448;18.122;2023-02-22T00:11:38;99216.69;;;6.40;82.90
62703;BME280;66022;50.448;18.122;2023-02-22T00:15:52;99217.36;;;6.39;83.01
62703;BME280;66022;50.448;18.122;2023-02-22T00:20:06;99218.14;;;6.34;83.29
62703;BME280;66022;50.448;18.122;2023-02-22T00:24:20;99218.36;;;6.29;83.06
62703;BME280;66022;50.448;18.122;2023-02-22T00:28:36;99219.55;;;6.24;84.19
62703;BME280;66022;50.448;18.122;2023-02-22T00:32:48;99221.48;;;6.20;83.32
62703;BME280;66022;50.448;18.122;2023-02-22T00:37:02;99224.04;;;6.12;85.37
62703;BME280;66022;50.448;18.122;2023-02-22T00:41:16;99226.22;;;6.10;83.84
62703;BME280;66022;50.448;18.122;2023-02-22T00:45:30;99228.56;;;6.09;83.49
62703;BME280;66022;50.448;18.122;2023-02-22T00:49:44;99232.06;;;6.04;84.08
62703;BME280;66022;50.448;18.122;2023-02-22T00:53:58;99235.57;;;6.04;83.86
62703;BME280;66022;50.448;18.122;2023-02-22T00:58:12;99236.58;;;6.00;85.03
62703;BME280;66022;50.448;18.122;2023-02-22T01:02:27;99237.03;;;5.98;84.37
62703;BME280;66022;50.448;18.122;2023-02-22T01:06:41;99236.80;;;5.95;84.67
62703;BME280;66022;50.448;18.122;2023-02-22T01:10:56;99237.02;;;5.95;84.57
62703;BME280;66022;50.448;18.122;2023-02-22T01:15:09;99237.84;;;5.97;84.51
62703;BME280;66022;50.448;18.122;2023-02-22T01:19:22;99238.67;;;5.92;85.11
62703;BME280;66022;50.448;18.122;2023-02-22T01:23:36;99239.67;;;5.94;84.76
62703;BME280;66022;50.448;18.122;2023-02-22T01:27:50;99239.50;;;5.93;87.96
62703;BME280;66022;50.448;18.122;2023-02-22T01:32:04;99237.77;;;5.96;85.85
62703;BME280;66022;50.448;18.122;2023-02-22T01:36:18;99234.59;;;6.00;85.70
62703;BME280;66022;50.448;18.122;2023-02-22T01:40:33;99232.26;;;6.02;85.86
62703;BME280;66022;50.448;18.122;2023-02-22T01:45:19;99230.58;;;6.05;85.46
62703;BME280;66022;50.448;18.122;2023-02-22T01:49:01;99231.33;;;6.02;86.33
62703;BME280;66022;50.448;18.122;2023-02-22T01:53:15;99232.09;;;6.01;85.60
62703;BME280;66022;50.448;18.122;2023-02-22T01:57:32;99233.37;;;5.96;88.79
62703;BME280;66022;50.448;18.122;2023-02-22T02:01:42;99235.49;;;5.94;86.11
62703;BME280;66022;50.448;18.122;2023-02-22T02:05:57;99237.49;;;5.94;86.14
62703;BME280;66022;50.448;18.122;2023-02-22T02:10:12;99238.76;;;5.93;86.25
62703;BME280;66022;50.448;18.122;2023-02-22T02:14:25;99238.93;;;5.94;85.61
62703;BME280;66022;50.448;18.122;2023-02-22T02:18:39;99239.17;;;5.91;86.75
62703;BME280;66022;50.448;18.122;2023-02-22T02:22:56;99239.28;;;5.90;86.21
62703;BME280;66022;50.448;18.122;2023-02-22T02:31:26;99240.11;;;5.87;86.05
62703;BME280;66022;50.448;18.122;2023-02-22T02:35:38;99238.05;;;5.86;85.85
62703;BME280;66022;50.448;18.122;2023-02-22T02:40:35;99236.87;;;5.83;85.94
62703;BME280;66022;50.448;18.122;2023-02-22T02:44:03;99236.45;;;5.83;85.71
62703;BME280;66022;50.448;18.122;2023-02-22T02:48:17;99238.47;;;5.81;87.01
62703;BME280;66022;50.448;18.122;2023-02-22T02:52:33;99240.47;;;5.81;85.67
62703;BME280;66022;50.448;18.122;2023-02-22T02:56:46;99239.22;;;5.79;85.81
62703;BME280;66022;50.448;18.122;2023-02-22T03:00:59;99238.89;;;5.78;86.01
62703;BME280;66022;50.448;18.122;2023-02-22T03:05:20;99238.42;;;5.73;85.62
62703;BME280;66022;50.448;18.122;2023-02-22T03:26:23;99245.37;;;5.55;87.07
62703;BME280;66022;50.448;18.122;2023-02-22T03:34:57;99250.20;;;5.57;87.16
62703;BME280;66022;50.448;18.122;2023-02-22T03:39:05;99252.72;;;5.54;88.07
62703;BME280;66022;50.448;18.122;2023-02-22T03:43:22;99254.96;;;5.54;87.20
62703;BME280;66022;50.448;18.122;2023-02-22T03:51:47;99258.39;;;5.54;86.92
62703;BME280;66022;50.448;18.122;2023-02-22T03:56:00;99258.29;;;5.55;86.77
62703;BME280;66022;50.448;18.122;2023-02-22T04:00:16;99259.20;;;5.55;86.94
62703;BME280;66022;50.448;18.122;2023-02-22T04:04:29;99258.87;;;5.56;86.37
62703;BME280;66022;50.448;18.122;2023-02-22T04:08:42;99259.72;;;5.56;87.32
62703;BME280;66022;50.448;18.122;2023-02-22T04:12:56;99261.78;;;5.57;86.22
62703;BME280;66022;50.448;18.122;2023-02-22T04:17:10;99262.73;;;5.54;88.84
62703;BME280;66022;50.448;18.122;2023-02-22T04:21:24;99263.81;;;5.54;86.40
62703;BME280;66022;50.448;18.122;2023-02-22T04:25:38;99265.14;;;5.52;86.61
62703;BME280;66022;50.448;18.122;2023-02-22T04:29:52;99265.31;;;5.49;86.92
62703;BME280;66022;50.448;18.122;2023-02-22T04:34:06;99265.64;;;5.49;86.66
62703;BME280;66022;50.448;18.122;2023-02-22T04:38:20;99266.13;;;5.48;87.56
62703;BME280;66022;50.448;18.122;2023-02-22T04:42:35;99265.23;;;5.49;86.33
62703;BME280;66022;50.448;18.122;2023-02-22T04:46:48;99263.98;;;5.47;86.41
62703;BME280;66022;50.448;18.122;2023-02-22T04:51:02;99263.73;;;5.45;86.29
62703;BME280;66022;50.448;18.122;2023-02-22T04:55:19;99263.33;;;5.43;86.37
62703;BME280;66022;50.448;18.122;2023-02-22T04:59:31;99264.15;;;5.34;87.58
62703;BME280;66022;50.448;18.122;2023-02-22T05:03:44;99262.56;;;5.35;87.28
62703;BME280;66022;50.448;18.122;2023-02-22T05:07:58;99261.83;;;5.32;89.60
62703;BME280;66022;50.448;18.122;2023-02-22T05:12:12;99262.33;;;5.32;87.05
62703;BME280;66022;50.448;18.122;2023-02-22T05:16:27;99262.34;;;5.29;87.13
62703;BME280;66022;50.448;18.122;2023-02-22T05:20:41;99263.10;;;5.25;88.46
62703;BME280;66022;50.448;18.122;2023-02-22T05:24:54;99262.68;;;5.22;88.16
62703;BME280;66022;50.448;18.122;2023-02-22T05:29:08;99262.08;;;5.16;89.06
62703;BME280;66022;50.448;18.122;2023-02-22T05:33:25;99261.84;;;5.16;88.08
62703;BME280;66022;50.448;18.122;2023-02-22T05:37:36;99261.74;;;5.14;91.30
62703;BME280;66022;50.448;18.122;2023-02-22T05:41:51;99261.00;;;5.14;88.62
62703;BME280;66022;50.448;18.122;2023-02-22T05:46:04;99262.24;;;5.14;88.14
62703;BME280;66022;50.448;18.122;2023-02-22T05:50:18;99263.42;;;5.13;88.56
62703;BME280;66022;50.448;18.122;2023-02-22T05:54:32;99264.83;;;5.15;87.71
62703;BME280;66022;50.448;18.122;2023-02-22T05:58:46;99266.33;;;5.15;89.01
62703;BME280;66022;50.448;18.122;2023-02-22T06:03:01;99268.92;;;5.17;87.83
62703;BME280;66022;50.448;18.122;2023-02-22T06:07:14;99271.32;;;5.10;91.11
62703;BME280;66022;50.448;18.122;2023-02-22T06:11:29;99274.68;;;5.09;87.64
62703;BME280;66022;50.448;18.122;2023-02-22T06:15:43;99277.34;;;5.07;87.92
62703;BME280;66022;50.448;18.122;2023-02-22T06:19:56;99280.00;;;5.03;88.55
62703;BME280;66022;50.448;18.122;2023-02-22T06:24:13;99283.39;;;5.03;88.06
62703;BME280;66022;50.448;18.122;2023-02-22T06:28:24;99286.16;;;5.02;89.50
62703;BME280;66022;50.448;18.122;2023-02-22T06:32:38;99289.23;;;5.02;88.23
62703;BME280;66022;50.448;18.122;2023-02-22T06:36:52;99293.06;;;5.00;90.10
62703;BME280;66022;50.448;18.122;2023-02-22T06:41:07;99297.40;;;5.02;88.33
62703;BME280;66022;50.448;18.122;2023-02-22T06:45:20;99301.58;;;5.05;88.45
62703;BME280;66022;50.448;18.122;2023-02-22T06:49:34;99306.37;;;5.06;88.86
62703;BME280;66022;50.448;18.122;2023-02-22T06:53:48;99310.38;;;5.14;88.55
62703;BME280;66022;50.448;18.122;2023-02-22T06:58:03;99314.15;;;5.21;90.07
62703;BME280;66022;50.448;18.122;2023-02-22T07:02:16;99316.97;;;5.31;88.46
62703;BME280;66022;50.448;18.122;2023-02-22T07:06:30;99318.81;;;5.41;88.51
62703;BME280;66022;50.448;18.122;2023-02-22T07:10:44;99321.80;;;5.51;88.48
62703;BME280;66022;50.448;18.122;2023-02-22T07:14:58;99324.97;;;5.63;88.01
62703;BME280;66022;50.448;18.122;2023-02-22T07:19:12;99327.54;;;5.73;88.43
62703;BME280;66022;50.448;18.122;2023-02-22T07:23:26;99329.77;;;5.86;87.65
62703;BME280;66022;50.448;18.122;2023-02-22T07:27:42;99330.80;;;5.95;90.05
62703;BME280;66022;50.448;18.122;2023-02-22T07:31:56;99332.06;;;6.07;87.44
62703;BME280;66022;50.448;18.122;2023-02-22T07:36:11;99333.80;;;6.19;87.36
62703;BME280;66022;50.448;18.122;2023-02-22T07:40:23;99334.42;;;6.31;87.55
62703;BME280;66022;50.448;18.122;2023-02-22T07:44:36;99334.20;;;6.42;87.01
62703;BME280;66022;50.448;18.122;2023-02-22T07:48:50;99335.16;;;6.52;88.00
62703;BME280;66022;50.448;18.122;2023-02-22T07:53:05;99335.94;;;6.61;87.46
62703;BME280;66022;50.448;18.122;2023-02-22T07:57:18;99336.52;;;6.66;89.16
62703;BME280;66022;50.448;18.122;2023-02-22T08:01:32;99337.53;;;6.76;86.93
62703;BME280;66022;50.448;18.122;2023-02-22T08:05:47;99338.98;;;6.86;85.93
62703;BME280;66022;50.448;18.122;2023-02-22T08:10:00;99339.69;;;6.94;86.21
62703;BME280;66022;50.448;18.122;2023-02-22T08:14:15;99340.45;;;7.03;86.12
62703;BME280;66022;50.448;18.122;2023-02-22T08:18:28;99341.42;;;7.09;87.25
62703;BME280;66022;50.448;18.122;2023-02-22T08:22:42;99341.55;;;7.14;86.79
62703;BME280;66022;50.448;18.122;2023-02-22T08:26:56;99342.16;;;7.13;88.43
62703;BME280;66022;50.448;18.122;2023-02-22T08:31:10;99343.38;;;7.16;87.15
62703;BME280;66022;50.448;18.122;2023-02-22T08:35:24;99344.87;;;7.19;87.22
62703;BME280;66022;50.448;18.122;2023-02-22T08:39:38;99345.78;;;7.20;87.56
62703;BME280;66022;50.448;18.122;2023-02-22T08:43:52;99346.31;;;7.24;86.99
62703;BME280;66022;50.448;18.122;2023-02-22T08:48:06;99347.22;;;7.26;88.51
62703;BME280;66022;50.448;18.122;2023-02-22T08:52:20;99348.64;;;7.29;87.38
62703;BME280;66022;50.448;18.122;2023-02-22T08:56:34;99349.37;;;7.31;87.22
62703;BME280;66022;50.448;18.122;2023-02-22T09:00:48;99349.11;;;7.34;86.81
62703;BME280;66022;50.448;18.122;2023-02-22T09:05:02;99348.92;;;7.38;86.69
62703;BME280;66022;50.448;18.122;2023-02-22T09:09:17;99349.08;;;7.38;86.38
62703;BME280;66022;50.448;18.122;2023-02-22T09:13:30;99350.78;;;7.45;85.77
62703;BME280;66022;50.448;18.122;2023-02-22T09:17:44;99352.48;;;7.50;86.69
62703;BME280;66022;50.448;18.122;2023-02-22T09:21:58;99353.25;;;7.58;85.05
62703;BME280;66022;50.448;18.122;2023-02-22T09:26:12;99354.44;;;7.65;84.81
62703;BME280;66022;50.448;18.122;2023-02-22T09:30:30;99356.06;;;7.71;84.99
62703;BME280;66022;50.448;18.122;2023-02-22T09:34:40;99356.52;;;7.76;84.67
62703;BME280;66022;50.448;18.122;2023-02-22T09:38:55;99356.23;;;7.79;85.00
62703;BME280;66022;50.448;18.122;2023-02-22T09:43:17;99355.00;;;7.84;84.40
62703;BME280;66022;50.448;18.122;2023-02-22T09:47:23;99353.91;;;7.86;85.98
62703;BME280;66022;50.448;18.122;2023-02-22T09:51:58;99352.20;;;7.97;84.38
62703;BME280;66022;50.448;18.122;2023-02-22T09:55:50;99350.48;;;8.11;83.85
62703;BME280;66022;50.448;18.122;2023-02-22T10:00:06;99347.90;;;8.25;82.53
62703;BME280;66022;50.448;18.122;2023-02-22T10:04:22;99344.96;;;8.42;80.55
62703;BME280;66022;50.448;18.122;2023-02-22T10:08:32;99342.94;;;8.58;80.10
62703;BME280;66022;50.448;18.122;2023-02-22T10:12:57;99341.27;;;8.76;78.95
62703;BME280;66022;50.448;18.122;2023-02-22T10:25:30;99333.51;;;9.31;75.54
62703;BME280;66022;50.448;18.122;2023-02-22T10:29:43;99330.30;;;9.63;73.17
62703;BME280;66022;50.448;18.122;2023-02-22T10:33:57;99328.79;;;10.09;68.98
62703;BME280;66022;50.448;18.122;2023-02-22T10:42:25;99326.12;;;10.76;68.57
62703;BME280;66022;50.448;18.122;2023-02-22T10:46:38;99325.42;;;10.95;66.38
62703;BME280;66022;50.448;18.122;2023-02-22T10:50:53;99324.44;;;10.98;69.26
62703;BME280;66022;50.448;18.122;2023-02-22T10:55:10;99323.85;;;10.95;69.19
62703;BME280;66022;50.448;18.122;2023-02-22T11:03:35;99320.58;;;10.90;65.69
62703;BME280;66022;50.448;18.122;2023-02-22T11:07:49;99318.80;;;10.86;62.74
62703;BME280;66022;50.448;18.122;2023-02-22T11:12:09;99317.47;;;10.83;65.90
62703;BME280;66022;50.448;18.122;2023-02-22T11:16:24;99316.24;;;10.81;67.46
62703;BME280;66022;50.448;18.122;2023-02-22T11:20:33;99315.58;;;10.77;65.33
62703;BME280;66022;50.448;18.122;2023-02-22T11:24:48;99314.42;;;10.76;65.40
62703;BME280;66022;50.448;18.122;2023-02-22T11:28:58;99313.12;;;10.70;63.07
62703;BME280;66022;50.448;18.122;2023-02-22T11:33:19;99311.19;;;10.70;61.75
62703;BME280;66022;50.448;18.122;2023-02-22T11:37:28;99309.14;;;10.67;62.06
62703;BME280;66022;50.448;18.122;2023-02-22T11:41:41;99306.61;;;10.72;63.34
62703;BME280;66022;50.448;18.122;2023-02-22T11:45:59;99303.81;;;10.77;64.36
62703;BME280;66022;50.448;18.122;2023-02-22T11:50:09;99300.56;;;10.79;62.69
62703;BME280;66022;50.448;18.122;2023-02-22T12:02:54;99293.29;;;10.92;62.61
62703;BME280;66022;50.448;18.122;2023-02-22T12:11:20;99290.53;;;11.03;62.77
62703;BME280;66022;50.448;18.122;2023-02-22T12:19:50;99288.45;;;11.33;61.59
62703;BME280;66022;50.448;18.122;2023-02-22T12:28:18;99287.81;;;11.48;62.49
62703;BME280;66022;50.448;18.122;2023-02-22T12:32:34;99287.17;;;11.54;64.07
62703;BME280;66022;50.448;18.122;2023-02-22T12:36:47;99286.38;;;11.56;61.80
62703;BME280;66022;50.448;18.122;2023-02-22T12:41:02;99285.46;;;11.53;62.35
62703;BME280;66022;50.448;18.122;2023-02-22T12:45:21;99284.56;;;11.50;62.10
62703;BME280;66022;50.448;18.122;2023-02-22T12:53:39;99279.17;;;11.38;62.78
62703;BME280;66022;50.448;18.122;2023-02-22T13:14:55;99273.03;;;11.41;62.23
62703;BME280;66022;50.448;18.122;2023-02-22T13:27:39;99267.99;;;11.38;60.55
62703;BME280;66022;50.448;18.122;2023-02-22T13:36:02;99266.05;;;11.38;60.94
62703;BME280;66022;50.448;18.122;2023-02-22T13:52:55;99266.52;;;11.29;62.83
62703;BME280;66022;50.448;18.122;2023-02-22T14:18:19;99255.80;;;11.04;63.12
62703;BME280;66022;50.448;18.122;2023-02-22T14:22:33;99255.67;;;11.02;64.62
62703;BME280;66022;50.448;18.122;2023-02-22T14:31:04;99256.27;;;10.97;63.85
62703;BME280;66022;50.448;18.122;2023-02-22T14:35:15;99256.89;;;10.96;63.01
62703;BME280;66022;50.448;18.122;2023-02-22T14:39:33;99256.96;;;10.83;62.87
62703;BME280;66022;50.448;18.122;2023-02-22T14:43:43;99257.37;;;10.75;62.85
62703;BME280;66022;50.448;18.122;2023-02-22T14:52:19;99257.92;;;10.52;63.40
62703;BME280;66022;50.448;18.122;2023-02-22T15:00:42;99258.49;;;10.27;62.63
62703;BME280;66022;50.448;18.122;2023-02-22T15:04:53;99259.76;;;10.14;64.39
62703;BME280;66022;50.448;18.122;2023-02-22T15:09:10;99261.17;;;9.99;64.32
62703;BME280;66022;50.448;18.122;2023-02-22T15:13:22;99261.77;;;9.90;63.56
62703;BME280;66022;50.448;18.122;2023-02-22T15:17:35;99261.66;;;9.78;65.35
62703;BME280;66022;50.448;18.122;2023-02-22T15:21:49;99260.96;;;9.71;64.42
62703;BME280;66022;50.448;18.122;2023-02-22T15:26:03;99260.83;;;9.63;66.23
62703;BME280;66022;50.448;18.122;2023-02-22T15:34:31;99262.30;;;9.46;66.52
62703;BME280;66022;50.448;18.122;2023-02-22T15:38:49;99263.47;;;9.38;65.83
62703;BME280;66022;50.448;18.122;2023-02-22T15:47:16;99263.06;;;9.18;65.30
62703;BME280;66022;50.448;18.122;2023-02-22T15:51:27;99262.67;;;9.11;66.05
62703;BME280;66022;50.448;18.122;2023-02-22T15:55:42;99262.93;;;9.04;66.24
62703;BME280;66022;50.448;18.122;2023-02-22T15:59:55;99262.81;;;8.96;66.31
62703;BME280;66022;50.448;18.122;2023-02-22T16:08:24;99261.27;;;8.86;67.13
62703;BME280;66022;50.448;18.122;2023-02-22T16:12:37;99261.66;;;8.83;67.43
62703;BME280;66022;50.448;18.122;2023-02-22T16:17:09;99261.41;;;8.79;65.48
62703;BME280;66022;50.448;18.122;2023-02-22T16:21:09;99262.19;;;8.76;67.24
62703;BME280;66022;50.448;18.122;2023-02-22T16:25:23;99263.48;;;8.72;66.14
62703;BME280;66022;50.448;18.122;2023-02-22T16:29:33;99267.17;;;8.62;67.48
62703;BME280;66022;50.448;18.122;2023-02-22T16:33:47;99270.79;;;8.54;68.04
62703;BME280;66022;50.448;18.122;2023-02-22T16:38:02;99273.78;;;8.44;69.42
62703;BME280;66022;50.448;18.122;2023-02-22T16:42:15;99276.14;;;8.34;69.32
62703;BME280;66022;50.448;18.122;2023-02-22T16:46:29;99280.10;;;8.26;70.40
62703;BME280;66022;50.448;18.122;2023-02-22T16:50:43;99281.19;;;8.18;71.10
62703;BME280;66022;50.448;18.122;2023-02-22T16:54:57;99283.78;;;8.11;71.05
62703;BME280;66022;50.448;18.122;2023-02-22T16:59:12;99286.45;;;7.98;71.02
62703;BME280;66022;50.448;18.122;2023-02-22T17:03:25;99288.45;;;7.91;71.02
62703;BME280;66022;50.448;18.122;2023-02-22T17:07:39;99290.41;;;7.79;71.48
62703;BME280;66022;50.448;18.122;2023-02-22T17:11:53;99292.10;;;7.72;70.86
62703;BME280;66022;50.448;18.122;2023-02-22T17:16:10;99293.24;;;7.64;70.98
62703;BME280;66022;50.448;18.122;2023-02-22T17:20:21;99294.15;;;7.56;70.30
62703;BME280;66022;50.448;18.122;2023-02-22T17:24:35;99294.53;;;7.50;70.68
62703;BME280;66022;50.448;18.122;2023-02-22T17:28:49;99295.51;;;7.44;70.10
62703;BME280;66022;50.448;18.122;2023-02-22T17:33:04;99296.22;;;7.39;70.39
62703;BME280;66022;50.448;18.122;2023-02-22T17:37:17;99296.25;;;7.29;70.46
62703;BME280;66022;50.448;18.122;2023-02-22T17:41:31;99296.85;;;7.25;70.74
62703;BME280;66022;50.448;18.122;2023-02-22T17:45:45;99297.45;;;7.22;71.07
62703;BME280;66022;50.448;18.122;2023-02-22T17:49:59;99298.27;;;7.17;70.63
62703;BME280;66022;50.448;18.122;2023-02-22T17:54:13;99299.53;;;7.14;71.08
62703;BME280;66022;50.448;18.122;2023-02-22T17:58:27;99299.91;;;7.09;70.91
62703;BME280;66022;50.448;18.122;2023-02-22T18:02:42;99300.67;;;7.05;70.31
62703;BME280;66022;50.448;18.122;2023-02-22T18:06:55;99301.50;;;6.98;70.20
62703;BME280;66022;50.448;18.122;2023-02-22T18:11:09;99301.59;;;6.95;69.10
62703;BME280;66022;50.448;18.122;2023-02-22T18:15:23;99300.44;;;6.92;69.21
62703;BME280;66022;50.448;18.122;2023-02-22T18:19:37;99299.96;;;6.89;69.53
62703;BME280;66022;50.448;18.122;2023-02-22T18:23:51;99299.72;;;6.89;68.67
62703;BME280;66022;50.448;18.122;2023-02-22T18:28:05;99301.05;;;6.87;69.06
62703;BME280;66022;50.448;18.122;2023-02-22T18:32:19;99301.96;;;6.87;69.00
62703;BME280;66022;50.448;18.122;2023-02-22T18:36:33;99302.22;;;6.87;67.41
62703;BME280;66022;50.448;18.122;2023-02-22T18:40:48;99303.50;;;6.85;66.98
62703;BME280;66022;50.448;18.122;2023-02-22T18:45:01;99304.25;;;6.84;67.44
62703;BME280;66022;50.448;18.122;2023-02-22T18:49:15;99304.69;;;6.81;67.26
62703;BME280;66022;50.448;18.122;2023-02-22T18:53:29;99304.17;;;6.81;66.84
62703;BME280;66022;50.448;18.122;2023-02-22T18:57:43;99303.27;;;6.79;66.62
62703;BME280;66022;50.448;18.122;2023-02-22T19:01:57;99302.28;;;6.78;66.27
62703;BME280;66022;50.448;18.122;2023-02-22T19:06:11;99301.89;;;6.78;66.57
62703;BME280;66022;50.448;18.122;2023-02-22T19:10:25;99300.80;;;6.76;66.48
62703;BME280;66022;50.448;18.122;2023-02-22T19:14:39;99299.80;;;6.76;66.12
62703;BME280;66022;50.448;18.122;2023-02-22T19:18:53;99299.64;;;6.74;67.02
62703;BME280;66022;50.448;18.122;2023-02-22T19:23:07;99299.05;;;6.75;67.23
62703;BME280;66022;50.448;18.122;2023-02-22T19:27:21;99298.41;;;6.72;65.90
62703;BME280;66022;50.448;18.122;2023-02-22T19:31:35;99297.30;;;6.74;66.25
62703;BME280;66022;50.448;18.122;2023-02-22T19:35:49;99296.79;;;6.76;66.70
62703;BME280;66022;50.448;18.122;2023-02-22T19:40:03;99296.86;;;6.77;66.53
62703;BME280;66022;50.448;18.122;2023-02-22T19:44:17;99296.59;;;6.80;67.14
62703;BME280;66022;50.448;18.122;2023-02-22T19:48:31;99295.40;;;6.83;66.81
62703;BME280;66022;50.448;18.122;2023-02-22T19:52:45;99295.06;;;6.86;67.47
62703;BME280;66022;50.448;18.122;2023-02-22T19:56:59;99295.40;;;6.84;65.79
62703;BME280;66022;50.448;18.122;2023-02-22T20:05:27;99298.27;;;6.90;68.92
62703;BME280;66022;50.448;18.122;2023-02-22T20:09:41;99298.95;;;6.93;68.69
62703;BME280;66022;50.448;18.122;2023-02-22T20:13:55;99299.15;;;6.97;69.21
62703;BME280;66022;50.448;18.122;2023-02-22T20:18:09;99298.80;;;6.98;69.00
62703;BME280;66022;50.448;18.122;2023-02-22T20:22:23;99297.00;;;6.96;67.80
62703;BME280;66022;50.448;18.122;2023-02-22T20:26:37;99296.61;;;6.91;68.44
62703;BME280;66022;50.448;18.122;2023-02-22T20:30:51;99296.39;;;6.85;68.55
62703;BME280;66022;50.448;18.122;2023-02-22T20:35:05;99297.60;;;6.77;67.91
62703;BME280;66022;50.448;18.122;2023-02-22T20:39:19;99298.92;;;6.67;68.95
62703;BME280;66022;50.448;18.122;2023-02-22T20:43:33;99299.03;;;6.65;70.00
62703;BME280;66022;50.448;18.122;2023-02-22T20:47:47;99298.97;;;6.58;70.70
62703;BME280;66022;50.448;18.122;2023-02-22T20:52:01;99300.85;;;6.52;70.73
62703;BME280;66022;50.448;18.122;2023-02-22T20:56:16;99300.56;;;6.44;69.96
62703;BME280;66022;50.448;18.122;2023-02-22T21:00:29;99300.51;;;6.36;70.10
62703;BME280;66022;50.448;18.122;2023-02-22T21:04:43;99300.95;;;6.31;69.48
62703;BME280;66022;50.448;18.122;2023-02-22T21:08:58;99301.90;;;6.23;69.26
62703;BME280;66022;50.448;18.122;2023-02-22T21:13:12;99301.17;;;6.20;69.79
62703;BME280;66022;50.448;18.122;2023-02-22T21:17:25;99299.44;;;6.10;69.20
62703;BME280;66022;50.448;18.122;2023-02-22T21:21:39;99296.55;;;6.03;68.78
62703;BME280;66022;50.448;18.122;2023-02-22T21:25:53;99294.22;;;5.97;69.50
62703;BME280;66022;50.448;18.122;2023-02-22T21:30:10;99293.31;;;5.90;70.08
62703;BME280;66022;50.448;18.122;2023-02-22T21:34:21;99292.30;;;5.85;69.97
62703;BME280;66022;50.448;18.122;2023-02-22T21:38:42;99290.66;;;5.78;70.73
62703;BME280;66022;50.448;18.122;2023-02-22T21:42:52;99288.94;;;5.71;70.48
62703;BME280;66022;50.448;18.122;2023-02-22T21:47:03;99287.29;;;5.60;70.36
62703;BME280;66022;50.448;18.122;2023-02-22T21:51:20;99284.89;;;5.54;70.49
62703;BME280;66022;50.448;18.122;2023-02-22T21:55:31;99282.81;;;5.47;70.14
62703;BME280;66022;50.448;18.122;2023-02-22T21:59:45;99280.14;;;5.38;70.23
62703;BME280;66022;50.448;18.122;2023-02-22T22:03:59;99277.59;;;5.31;70.15
62703;BME280;66022;50.448;18.122;2023-02-22T22:08:13;99276.08;;;5.23;70.60
62703;BME280;66022;50.448;18.122;2023-02-22T22:12:27;99274.75;;;5.19;70.31
62703;BME280;66022;50.448;18.122;2023-02-22T22:16:41;99273.83;;;5.15;70.55
62703;BME280;66022;50.448;18.122;2023-02-22T22:20:56;99273.41;;;5.14;70.72
62703;BME280;66022;50.448;18.122;2023-02-22T22:25:09;99272.16;;;5.13;71.28
62703;BME280;66022;50.448;18.122;2023-02-22T22:29:24;99271.69;;;5.07;71.53
62703;BME280;66022;50.448;18.122;2023-02-22T22:33:38;99269.44;;;5.05;71.27
62703;BME280;66022;50.448;18.122;2023-02-22T22:37:51;99266.83;;;5.01;70.90
62703;BME280;66022;50.448;18.122;2023-02-22T22:42:05;99265.00;;;5.00;70.64
62703;BME280;66022;50.448;18.122;2023-02-22T22:46:19;99263.08;;;4.99;70.43
62703;BME280;66022;50.448;18.122;2023-02-22T22:50:33;99262.08;;;4.97;69.89
62703;BME280;66022;50.448;18.122;2023-02-22T22:54:47;99261.58;;;4.97;70.18
62703;BME280;66022;50.448;18.122;2023-02-22T22:59:01;99261.01;;;4.94;69.96
62703;BME280;66022;50.448;18.122;2023-02-22T23:03:15;99260.92;;;4.96;70.44
62703;BME280;66022;50.448;18.122;2023-02-22T23:07:29;99261.67;;;4.95;71.19
62703;BME280;66022;50.448;18.122;2023-02-22T23:11:44;99262.77;;;4.98;71.00
62703;BME280;66022;50.448;18.122;2023-02-22T23:16:00;99263.43;;;5.00;71.14
62703;BME280;66022;50.448;18.122;2023-02-22T23:20:11;99265.16;;;5.01;71.10
62703;BME280;66022;50.448;18.122;2023-02-22T23:24:26;99265.60;;;5.01;71.33
62703;BME280;66022;50.448;18.122;2023-02-22T23:28:39;99264.90;;;4.99;71.69
62703;BME280;66022;50.448;18.122;2023-02-22T23:32:53;99264.90;;;4.97;71.61
62703;BME280;66022;50.448;18.122;2023-02-22T23:37:07;99264.15;;;4.87;72.03
62703;BME280;66022;50.448;18.122;2023-02-22T23:41:21;99263.33;;;4.82;71.59
62703;BME280;66022;50.448;18.122;2023-02-22T23:45:35;99261.08;;;4.76;71.88
62703;BME280;66022;50.448;18.122;2023-02-22T23:49:49;99259.81;;;4.69;71.61
62703;BME280;66022;50.448;18.122;2023-02-22T23:54:04;99258.98;;;4.66;72.11
62703;BME280;66022;50.448;18.122;2023-02-22T23:58:17;99257.40;;;4.62;72.75
